sensor_id;sensor_type;location;lat;lon;timestamp;P1;durP1;ratioP1;P2;durP2;ratioP2
2644;SDS011;15377;48.540;9.268;2022-12-11T00:00:20;23.20;;;15.57;;
2644;SDS011;15377;48.540;9.268;2022-12-11T00:02:46;28.17;;;16.43;;
2644;SDS011;15377;48.540;9.268;2022-12-11T00:05:11;28.17;;;16.80;;
2644;SDS011;15377;48.540;9.268;2022-12-11T00:07:36;26.50;;;15.00;;
2644;SDS011;15377;48.540;9.268;2022-12-11T00:10:02;28.03;;;15.83;;
2644;SDS011;15377;48.540;9.268;2022-12-11T00:12:29;26.25;;;16.65;;
2644;SDS011;15377;48.540;9.268;2022-12-11T00:14:55;27.38;;;17.20;;
2644;SDS011;15377;48.540;9.268;2022-12-11T00:17:20;31.23;;;17.63;;
2644;SDS011;15377;48.540;9.268;2022-12-11T00:19:45;27.07;;;16.17;;
2644;SDS011;15377;48.540;9.268;2022-12-11T00:22:11;29.70;;;17.33;;
2644;SDS011;15377;48.540;9.268;2022-12-11T00:24:36;32.10;;;18.60;;
2644;SDS011;15377;48.540;9.268;2022-12-11T00:27:01;32.47;;;17.70;;
2644;SDS011;15377;48.540;9.268;2022-12-11T00:29:27;31.40;;;16.67;;
2644;SDS011;15377;48.540;9.268;2022-12-11T00:31:52;29.83;;;17.40;;
2644;SDS011;15377;48.540;9.268;2022-12-11T00:34:17;32.23;;;17.70;;
2644;SDS011;15377;48.540;9.268;2022-12-11T00:36:43;28.50;;;17.40;;
2644;SDS011;15377;48.540;9.268;2022-12-11T00:39:08;28.30;;;16.90;;
2644;SDS011;15377;48.540;9.268;2022-12-11T00:41:33;29.63;;;16.47;;
2644;SDS011;15377;48.540;9.268;2022-12-11T00:43:59;27.47;;;17.83;;
2644;SDS011;15377;48.540;9.268;2022-12-11T00:46:24;31.23;;;18.13;;
2644;SDS011;15377;48.540;9.268;2022-12-11T00:48:50;33.10;;;19.87;;
2644;SDS011;15377;48.540;9.268;2022-12-11T00:51:15;31.37;;;17.37;;
2644;SDS011;15377;48.540;9.268;2022-12-11T00:53:41;28.73;;;17.88;;
2644;SDS011;15377;48.540;9.268;2022-12-11T00:56:10;28.70;;;16.33;;
2644;SDS011;15377;48.540;9.268;2022-12-11T00:58:38;31.30;;;17.73;;
2644;SDS011;15377;48.540;9.268;2022-12-11T01:01:05;28.97;;;17.47;;
2644;SDS011;15377;48.540;9.268;2022-12-11T01:03:37;28.10;;;17.23;;
2644;SDS011;15377;48.540;9.268;2022-12-11T01:06:03;29.60;;;17.97;;
2644;SDS011;15377;48.540;9.268;2022-12-11T01:08:29;32.22;;;18.13;;
2644;SDS011;15377;48.540;9.268;2022-12-11T01:11:02;32.53;;;17.40;;
2644;SDS011;15377;48.540;9.268;2022-12-11T01:13:29;37.42;;;18.40;;
2644;SDS011;15377;48.540;9.268;2022-12-11T01:15:55;29.52;;;16.92;;
2644;SDS011;15377;48.540;9.268;2022-12-11T01:18:20;29.67;;;17.53;;
2644;SDS011;15377;48.540;9.268;2022-12-11T01:20:46;31.77;;;19.73;;
2644;SDS011;15377;48.540;9.268;2022-12-11T01:23:12;36.43;;;20.07;;
2644;SDS011;15377;48.540;9.268;2022-12-11T01:25:37;35.00;;;20.75;;
2644;SDS011;15377;48.540;9.268;2022-12-11T01:28:03;32.60;;;18.90;;
2644;SDS011;15377;48.540;9.268;2022-12-11T01:30:29;31.23;;;18.50;;
2644;SDS011;15377;48.540;9.268;2022-12-11T01:32:54;31.20;;;17.70;;
2644;SDS011;15377;48.540;9.268;2022-12-11T01:35:20;29.00;;;18.13;;
2644;SDS011;15377;48.540;9.268;2022-12-11T01:37:45;31.20;;;19.10;;
2644;SDS011;15377;48.540;9.268;2022-12-11T01:40:15;37.50;;;21.50;;
2644;SDS011;15377;48.540;9.268;2022-12-11T01:42:41;35.50;;;19.88;;
2644;SDS011;15377;48.540;9.268;2022-12-11T01:48:06;33.72;;;19.67;;
2644;SDS011;15377;48.540;9.268;2022-12-11T01:50:43;32.33;;;20.50;;
2644;SDS011;15377;48.540;9.268;2022-12-11T01:53:13;35.80;;;21.83;;
2644;SDS011;15377;48.540;9.268;2022-12-11T01:55:52;37.30;;;21.73;;
2644;SDS011;15377;48.540;9.268;2022-12-11T01:58:20;39.40;;;21.80;;
2644;SDS011;15377;48.540;9.268;2022-12-11T02:00:48;35.30;;;19.83;;
2644;SDS011;15377;48.540;9.268;2022-12-11T02:03:16;35.53;;;20.33;;
2644;SDS011;15377;48.540;9.268;2022-12-11T02:05:41;32.40;;;19.07;;
2644;SDS011;15377;48.540;9.268;2022-12-11T02:08:07;30.13;;;18.53;;
2644;SDS011;15377;48.540;9.268;2022-12-11T02:10:42;36.77;;;19.33;;
2644;SDS011;15377;48.540;9.268;2022-12-11T02:13:13;34.38;;;19.08;;
2644;SDS011;15377;48.540;9.268;2022-12-11T02:15:50;34.88;;;21.05;;
2644;SDS011;15377;48.540;9.268;2022-12-11T02:18:26;33.72;;;20.88;;
2644;SDS011;15377;48.540;9.268;2022-12-11T02:29:33;34.05;;;20.95;;
2644;SDS011;15377;48.540;9.268;2022-12-11T02:32:08;34.22;;;19.92;;
2644;SDS011;15377;48.540;9.268;2022-12-11T02:34:42;32.67;;;19.55;;
2644;SDS011;15377;48.540;9.268;2022-12-11T02:37:20;37.97;;;21.75;;
2644;SDS011;15377;48.540;9.268;2022-12-11T02:39:48;32.85;;;20.70;;
2644;SDS011;15377;48.540;9.268;2022-12-11T02:42:18;39.88;;;21.40;;
2644;SDS011;15377;48.540;9.268;2022-12-11T02:44:45;36.42;;;21.80;;
2644;SDS011;15377;48.540;9.268;2022-12-11T02:47:12;35.80;;;21.83;;
2644;SDS011;15377;48.540;9.268;2022-12-11T02:49:41;38.80;;;20.88;;
2644;SDS011;15377;48.540;9.268;2022-12-11T02:52:08;35.80;;;20.42;;
2644;SDS011;15377;48.540;9.268;2022-12-11T02:54:36;34.50;;;20.58;;
2644;SDS011;15377;48.540;9.268;2022-12-11T02:57:07;36.33;;;21.13;;
2644;SDS011;15377;48.540;9.268;2022-12-11T02:59:54;42.88;;;22.00;;
2644;SDS011;15377;48.540;9.268;2022-12-11T03:02:19;31.40;;;19.90;;
2644;SDS011;15377;48.540;9.268;2022-12-11T03:04:45;32.03;;;19.00;;
2644;SDS011;15377;48.540;9.268;2022-12-11T03:07:15;32.58;;;18.88;;
2644;SDS011;15377;48.540;9.268;2022-12-11T03:09:44;31.50;;;18.13;;
2644;SDS011;15377;48.540;9.268;2022-12-11T03:12:12;33.30;;;20.40;;
2644;SDS011;15377;48.540;9.268;2022-12-11T03:14:40;31.73;;;18.88;;
2644;SDS011;15377;48.540;9.268;2022-12-11T03:20:18;31.25;;;17.75;;
2644;SDS011;15377;48.540;9.268;2022-12-11T03:25:58;29.17;;;15.93;;
2644;SDS011;15377;48.540;9.268;2022-12-11T03:31:04;33.50;;;19.15;;
2644;SDS011;15377;48.540;9.268;2022-12-11T03:33:35;34.83;;;20.27;;
2644;SDS011;15377;48.540;9.268;2022-12-11T03:36:13;31.52;;;18.25;;
2644;SDS011;15377;48.540;9.268;2022-12-11T03:38:48;40.05;;;21.00;;
2644;SDS011;15377;48.540;9.268;2022-12-11T03:41:17;37.58;;;20.20;;
2644;SDS011;15377;48.540;9.268;2022-12-11T03:43:47;36.90;;;19.70;;
2644;SDS011;15377;48.540;9.268;2022-12-11T03:46:16;36.88;;;19.70;;
2644;SDS011;15377;48.540;9.268;2022-12-11T03:48:46;33.75;;;19.92;;
2644;SDS011;15377;48.540;9.268;2022-12-11T03:51:13;37.03;;;19.15;;
2644;SDS011;15377;48.540;9.268;2022-12-11T03:53:41;37.53;;;20.65;;
2644;SDS011;15377;48.540;9.268;2022-12-11T03:56:08;30.27;;;19.35;;
2644;SDS011;15377;48.540;9.268;2022-12-11T03:58:36;36.88;;;19.63;;
2644;SDS011;15377;48.540;9.268;2022-12-11T04:01:02;33.67;;;20.05;;
2644;SDS011;15377;48.540;9.268;2022-12-11T04:03:28;31.87;;;18.60;;
2644;SDS011;15377;48.540;9.268;2022-12-11T04:05:54;34.10;;;18.10;;
2644;SDS011;15377;48.540;9.268;2022-12-11T04:08:20;31.45;;;18.95;;
2644;SDS011;15377;48.540;9.268;2022-12-11T04:10:46;40.47;;;20.58;;
2644;SDS011;15377;48.540;9.268;2022-12-11T04:13:12;38.80;;;21.40;;
2644;SDS011;15377;48.540;9.268;2022-12-11T04:15:38;35.50;;;20.80;;
2644;SDS011;15377;48.540;9.268;2022-12-11T04:18:04;35.10;;;18.35;;
2644;SDS011;15377;48.540;9.268;2022-12-11T04:20:48;32.97;;;20.15;;
2644;SDS011;15377;48.540;9.268;2022-12-11T04:23:36;34.28;;;18.27;;
2644;SDS011;15377;48.540;9.268;2022-12-11T04:26:20;43.72;;;21.88;;
2644;SDS011;15377;48.540;9.268;2022-12-11T04:28:46;39.10;;;20.07;;
2644;SDS011;15377;48.540;9.268;2022-12-11T04:31:13;32.88;;;18.20;;
2644;SDS011;15377;48.540;9.268;2022-12-11T04:33:40;35.13;;;21.15;;
2644;SDS011;15377;48.540;9.268;2022-12-11T04:36:06;37.37;;;17.60;;
2644;SDS011;15377;48.540;9.268;2022-12-11T04:38:32;38.17;;;20.05;;
2644;SDS011;15377;48.540;9.268;2022-12-11T04:41:02;37.80;;;20.60;;
2644;SDS011;15377;48.540;9.268;2022-12-11T04:43:30;39.92;;;22.48;;
2644;SDS011;15377;48.540;9.268;2022-12-11T04:46:06;35.70;;;18.50;;
2644;SDS011;15377;48.540;9.268;2022-12-11T04:48:33;39.80;;;20.52;;
2644;SDS011;15377;48.540;9.268;2022-12-11T04:50:59;35.03;;;18.40;;
2644;SDS011;15377;48.540;9.268;2022-12-11T04:53:25;38.80;;;20.73;;
2644;SDS011;15377;48.540;9.268;2022-12-11T04:55:50;36.07;;;19.20;;
2644;SDS011;15377;48.540;9.268;2022-12-11T04:58:16;36.43;;;20.70;;
2644;SDS011;15377;48.540;9.268;2022-12-11T05:00:41;35.07;;;19.30;;
2644;SDS011;15377;48.540;9.268;2022-12-11T05:03:07;33.33;;;20.13;;
2644;SDS011;15377;48.540;9.268;2022-12-11T05:05:33;35.92;;;18.38;;
2644;SDS011;15377;48.540;9.268;2022-12-11T05:07:58;38.10;;;20.50;;
2644;SDS011;15377;48.540;9.268;2022-12-11T05:10:24;39.40;;;19.97;;
2644;SDS011;15377;48.540;9.268;2022-12-11T05:12:49;35.60;;;20.40;;
2644;SDS011;15377;48.540;9.268;2022-12-11T05:15:15;38.60;;;21.93;;
2644;SDS011;15377;48.540;9.268;2022-12-11T05:17:40;36.93;;;21.03;;
2644;SDS011;15377;48.540;9.268;2022-12-11T05:20:06;33.30;;;18.70;;
2644;SDS011;15377;48.540;9.268;2022-12-11T05:22:31;31.88;;;18.60;;
2644;SDS011;15377;48.540;9.268;2022-12-11T05:24:57;39.00;;;21.30;;
2644;SDS011;15377;48.540;9.268;2022-12-11T05:27:22;35.37;;;20.70;;
2644;SDS011;15377;48.540;9.268;2022-12-11T05:29:48;34.80;;;19.57;;
2644;SDS011;15377;48.540;9.268;2022-12-11T05:32:13;34.97;;;19.60;;
2644;SDS011;15377;48.540;9.268;2022-12-11T05:34:39;36.70;;;18.00;;
2644;SDS011;15377;48.540;9.268;2022-12-11T05:37:04;33.47;;;19.20;;
2644;SDS011;15377;48.540;9.268;2022-12-11T05:39:29;39.10;;;19.70;;
2644;SDS011;15377;48.540;9.268;2022-12-11T05:41:55;34.13;;;19.60;;
2644;SDS011;15377;48.540;9.268;2022-12-11T05:44:20;33.20;;;18.60;;
2644;SDS011;15377;48.540;9.268;2022-12-11T05:46:46;34.70;;;18.63;;
2644;SDS011;15377;48.540;9.268;2022-12-11T05:49:11;41.67;;;17.73;;
2644;SDS011;15377;48.540;9.268;2022-12-11T05:51:37;32.27;;;17.37;;
2644;SDS011;15377;48.540;9.268;2022-12-11T05:54:03;27.23;;;17.52;;
2644;SDS011;15377;48.540;9.268;2022-12-11T05:56:30;29.53;;;16.53;;
2644;SDS011;15377;48.540;9.268;2022-12-11T05:58:58;27.30;;;17.10;;
2644;SDS011;15377;48.540;9.268;2022-12-11T06:03:52;27.50;;;16.17;;
2644;SDS011;15377;48.540;9.268;2022-12-11T06:06:18;32.47;;;18.73;;
2644;SDS011;15377;48.540;9.268;2022-12-11T06:08:44;28.77;;;16.80;;
2644;SDS011;15377;48.540;9.268;2022-12-11T06:11:11;30.97;;;16.73;;
2644;SDS011;15377;48.540;9.268;2022-12-11T06:13:37;26.17;;;14.75;;
2644;SDS011;15377;48.540;9.268;2022-12-11T06:16:03;24.30;;;15.07;;
2644;SDS011;15377;48.540;9.268;2022-12-11T06:18:31;30.50;;;16.25;;
2644;SDS011;15377;48.540;9.268;2022-12-11T06:21:00;26.13;;;13.93;;
2644;SDS011;15377;48.540;9.268;2022-12-11T06:23:25;29.33;;;15.37;;
2644;SDS011;15377;48.540;9.268;2022-12-11T06:25:51;27.97;;;16.50;;
2644;SDS011;15377;48.540;9.268;2022-12-11T06:28:16;27.70;;;14.90;;
2644;SDS011;15377;48.540;9.268;2022-12-11T06:30:41;26.80;;;14.67;;
2644;SDS011;15377;48.540;9.268;2022-12-11T06:33:07;26.97;;;15.00;;
2644;SDS011;15377;48.540;9.268;2022-12-11T06:35:33;25.27;;;14.10;;
2644;SDS011;15377;48.540;9.268;2022-12-11T06:37:58;28.47;;;16.10;;
2644;SDS011;15377;48.540;9.268;2022-12-11T06:40:23;24.50;;;14.43;;
2644;SDS011;15377;48.540;9.268;2022-12-11T06:42:49;23.67;;;14.33;;
2644;SDS011;15377;48.540;9.268;2022-12-11T06:45:14;28.23;;;15.97;;
2644;SDS011;15377;48.540;9.268;2022-12-11T06:47:39;25.83;;;14.97;;
2644;SDS011;15377;48.540;9.268;2022-12-11T06:50:05;26.60;;;14.67;;
2644;SDS011;15377;48.540;9.268;2022-12-11T06:52:30;29.10;;;14.03;;
2644;SDS011;15377;48.540;9.268;2022-12-11T06:54:56;27.60;;;14.57;;
2644;SDS011;15377;48.540;9.268;2022-12-11T06:57:21;24.23;;;14.33;;
2644;SDS011;15377;48.540;9.268;2022-12-11T06:59:47;25.70;;;13.10;;
2644;SDS011;15377;48.540;9.268;2022-12-11T07:02:13;25.27;;;16.05;;
2644;SDS011;15377;48.540;9.268;2022-12-11T07:04:40;26.88;;;15.52;;
2644;SDS011;15377;48.540;9.268;2022-12-11T07:07:06;27.67;;;14.17;;
2644;SDS011;15377;48.540;9.268;2022-12-11T07:09:31;30.23;;;16.47;;
2644;SDS011;15377;48.540;9.268;2022-12-11T07:11:57;29.67;;;14.60;;
2644;SDS011;15377;48.540;9.268;2022-12-11T07:14:22;25.50;;;14.10;;
2644;SDS011;15377;48.540;9.268;2022-12-11T07:16:48;27.67;;;14.57;;
2644;SDS011;15377;48.540;9.268;2022-12-11T07:19:13;28.57;;;15.67;;
2644;SDS011;15377;48.540;9.268;2022-12-11T07:21:39;30.33;;;15.23;;
2644;SDS011;15377;48.540;9.268;2022-12-11T07:24:04;28.97;;;15.93;;
2644;SDS011;15377;48.540;9.268;2022-12-11T07:26:30;29.23;;;16.00;;
2644;SDS011;15377;48.540;9.268;2022-12-11T07:28:56;24.93;;;14.87;;
2644;SDS011;15377;48.540;9.268;2022-12-11T07:31:23;36.65;;;18.45;;
2644;SDS011;15377;48.540;9.268;2022-12-11T07:33:53;28.98;;;15.57;;
2644;SDS011;15377;48.540;9.268;2022-12-11T07:36:24;26.85;;;14.88;;
2644;SDS011;15377;48.540;9.268;2022-12-11T07:38:50;30.00;;;15.13;;
2644;SDS011;15377;48.540;9.268;2022-12-11T07:41:16;71.07;;;39.40;;
2644;SDS011;15377;48.540;9.268;2022-12-11T07:43:42;34.92;;;18.55;;
2644;SDS011;15377;48.540;9.268;2022-12-11T07:46:09;26.97;;;14.53;;
2644;SDS011;15377;48.540;9.268;2022-12-11T07:48:38;30.65;;;16.45;;
2644;SDS011;15377;48.540;9.268;2022-12-11T07:51:08;29.98;;;17.35;;
2644;SDS011;15377;48.540;9.268;2022-12-11T07:53:43;27.92;;;14.13;;
2644;SDS011;15377;48.540;9.268;2022-12-11T07:56:10;27.60;;;15.48;;
2644;SDS011;15377;48.540;9.268;2022-12-11T07:58:36;32.30;;;17.35;;
2644;SDS011;15377;48.540;9.268;2022-12-11T08:01:03;28.15;;;15.68;;
2644;SDS011;15377;48.540;9.268;2022-12-11T08:03:30;29.10;;;15.43;;
2644;SDS011;15377;48.540;9.268;2022-12-11T08:05:55;25.57;;;14.60;;
2644;SDS011;15377;48.540;9.268;2022-12-11T08:08:20;27.27;;;17.13;;
2644;SDS011;15377;48.540;9.268;2022-12-11T08:10:46;29.70;;;16.63;;
2644;SDS011;15377;48.540;9.268;2022-12-11T08:13:11;27.40;;;15.23;;
2644;SDS011;15377;48.540;9.268;2022-12-11T08:15:36;22.67;;;13.83;;
2644;SDS011;15377;48.540;9.268;2022-12-11T08:18:02;29.20;;;15.10;;
2644;SDS011;15377;48.540;9.268;2022-12-11T08:20:28;27.37;;;14.70;;
2644;SDS011;15377;48.540;9.268;2022-12-11T08:22:54;29.45;;;17.88;;
2644;SDS011;15377;48.540;9.268;2022-12-11T08:25:20;26.33;;;15.77;;
2644;SDS011;15377;48.540;9.268;2022-12-11T08:27:45;27.07;;;16.00;;
2644;SDS011;15377;48.540;9.268;2022-12-11T08:30:11;29.73;;;18.03;;
2644;SDS011;15377;48.540;9.268;2022-12-11T08:32:36;49.17;;;25.00;;
2644;SDS011;15377;48.540;9.268;2022-12-11T08:35:02;27.23;;;15.90;;
2644;SDS011;15377;48.540;9.268;2022-12-11T08:37:27;33.10;;;18.17;;
2644;SDS011;15377;48.540;9.268;2022-12-11T08:39:53;27.40;;;15.30;;
2644;SDS011;15377;48.540;9.268;2022-12-11T08:42:19;29.80;;;15.37;;
2644;SDS011;15377;48.540;9.268;2022-12-11T08:44:45;27.33;;;14.60;;
2644;SDS011;15377;48.540;9.268;2022-12-11T08:47:10;28.30;;;15.77;;
2644;SDS011;15377;48.540;9.268;2022-12-11T08:49:35;26.90;;;15.90;;
2644;SDS011;15377;48.540;9.268;2022-12-11T08:52:04;29.87;;;15.30;;
2644;SDS011;15377;48.540;9.268;2022-12-11T08:54:30;27.00;;;16.65;;
2644;SDS011;15377;48.540;9.268;2022-12-11T08:56:56;25.30;;;15.40;;
2644;SDS011;15377;48.540;9.268;2022-12-11T08:59:21;27.63;;;14.83;;
2644;SDS011;15377;48.540;9.268;2022-12-11T09:01:47;24.53;;;14.97;;
2644;SDS011;15377;48.540;9.268;2022-12-11T09:04:12;24.77;;;13.77;;
2644;SDS011;15377;48.540;9.268;2022-12-11T09:06:38;25.70;;;16.10;;
2644;SDS011;15377;48.540;9.268;2022-12-11T09:09:03;26.43;;;15.43;;
2644;SDS011;15377;48.540;9.268;2022-12-11T09:11:31;26.77;;;15.30;;
2644;SDS011;15377;48.540;9.268;2022-12-11T09:13:58;27.10;;;15.75;;
2644;SDS011;15377;48.540;9.268;2022-12-11T09:16:24;25.63;;;15.77;;
2644;SDS011;15377;48.540;9.268;2022-12-11T09:18:51;29.85;;;15.75;;
2644;SDS011;15377;48.540;9.268;2022-12-11T09:21:19;24.48;;;14.30;;
2644;SDS011;15377;48.540;9.268;2022-12-11T09:23:46;21.42;;;14.57;;
2644;SDS011;15377;48.540;9.268;2022-12-11T09:26:13;23.00;;;13.47;;
2644;SDS011;15377;48.540;9.268;2022-12-11T09:28:40;23.35;;;12.50;;
2644;SDS011;15377;48.540;9.268;2022-12-11T09:31:07;21.00;;;13.48;;
2644;SDS011;15377;48.540;9.268;2022-12-11T09:33:36;21.33;;;12.95;;
2644;SDS011;15377;48.540;9.268;2022-12-11T09:36:02;27.77;;;17.43;;
2644;SDS011;15377;48.540;9.268;2022-12-11T09:38:29;22.83;;;14.30;;
2644;SDS011;15377;48.540;9.268;2022-12-11T09:40:55;19.15;;;12.60;;
2644;SDS011;15377;48.540;9.268;2022-12-11T09:46:02;19.05;;;12.23;;
2644;SDS011;15377;48.540;9.268;2022-12-11T09:48:31;22.00;;;12.60;;
2644;SDS011;15377;48.540;9.268;2022-12-11T09:50:58;20.60;;;12.63;;
2644;SDS011;15377;48.540;9.268;2022-12-11T09:53:31;19.52;;;12.27;;
2644;SDS011;15377;48.540;9.268;2022-12-11T10:01:25;21.05;;;10.85;;
2644;SDS011;15377;48.540;9.268;2022-12-11T10:04:02;18.75;;;11.88;;
2644;SDS011;15377;48.540;9.268;2022-12-11T10:06:41;20.13;;;12.73;;
2644;SDS011;15377;48.540;9.268;2022-12-11T10:09:33;18.85;;;11.93;;
2644;SDS011;15377;48.540;9.268;2022-12-11T10:12:10;26.52;;;15.32;;
2644;SDS011;15377;48.540;9.268;2022-12-11T10:17:30;37.22;;;22.88;;
2644;SDS011;15377;48.540;9.268;2022-12-11T10:20:00;22.83;;;14.02;;
2644;SDS011;15377;48.540;9.268;2022-12-11T10:22:38;22.10;;;13.10;;
2644;SDS011;15377;48.540;9.268;2022-12-11T10:25:04;23.50;;;12.90;;
2644;SDS011;15377;48.540;9.268;2022-12-11T10:27:32;20.85;;;12.75;;
2644;SDS011;15377;48.540;9.268;2022-12-11T10:38:00;23.77;;;14.30;;
2644;SDS011;15377;48.540;9.268;2022-12-11T10:40:36;22.13;;;12.20;;
2644;SDS011;15377;48.540;9.268;2022-12-11T10:43:04;22.58;;;13.50;;
2644;SDS011;15377;48.540;9.268;2022-12-11T10:45:30;20.90;;;12.80;;
2644;SDS011;15377;48.540;9.268;2022-12-11T10:48:02;18.17;;;12.80;;
2644;SDS011;15377;48.540;9.268;2022-12-11T10:50:30;19.52;;;10.55;;
2644;SDS011;15377;48.540;9.268;2022-12-11T10:52:55;20.30;;;11.70;;
2644;SDS011;15377;48.540;9.268;2022-12-11T10:55:23;21.97;;;13.57;;
2644;SDS011;15377;48.540;9.268;2022-12-11T10:57:53;21.60;;;13.05;;
2644;SDS011;15377;48.540;9.268;2022-12-11T11:00:27;20.60;;;13.40;;
2644;SDS011;15377;48.540;9.268;2022-12-11T11:02:55;20.23;;;12.93;;
2644;SDS011;15377;48.540;9.268;2022-12-11T11:05:29;19.30;;;11.80;;
2644;SDS011;15377;48.540;9.268;2022-12-11T11:08:21;19.65;;;11.75;;
2644;SDS011;15377;48.540;9.268;2022-12-11T11:10:51;20.20;;;11.85;;
2644;SDS011;15377;48.540;9.268;2022-12-11T11:13:20;23.25;;;13.68;;
2644;SDS011;15377;48.540;9.268;2022-12-11T11:15:47;24.63;;;13.30;;
2644;SDS011;15377;48.540;9.268;2022-12-11T11:18:23;21.50;;;12.73;;
2644;SDS011;15377;48.540;9.268;2022-12-11T11:20:51;18.67;;;10.68;;
2644;SDS011;15377;48.540;9.268;2022-12-11T11:23:17;19.60;;;13.47;;
2644;SDS011;15377;48.540;9.268;2022-12-11T11:25:49;20.40;;;9.85;;
2644;SDS011;15377;48.540;9.268;2022-12-11T11:28:23;18.83;;;12.05;;
2644;SDS011;15377;48.540;9.268;2022-12-11T11:33:26;22.42;;;12.27;;
2644;SDS011;15377;48.540;9.268;2022-12-11T11:35:55;23.02;;;13.10;;
2644;SDS011;15377;48.540;9.268;2022-12-11T11:38:27;20.05;;;11.52;;
2644;SDS011;15377;48.540;9.268;2022-12-11T11:41:14;22.27;;;14.20;;
2644;SDS011;15377;48.540;9.268;2022-12-11T11:43:50;15.00;;;10.10;;
2644;SDS011;15377;48.540;9.268;2022-12-11T11:46:24;24.33;;;14.02;;
2644;SDS011;15377;48.540;9.268;2022-12-11T11:49:06;19.65;;;11.27;;
2644;SDS011;15377;48.540;9.268;2022-12-11T11:52:00;20.30;;;12.43;;
2644;SDS011;15377;48.540;9.268;2022-12-11T11:57:14;23.52;;;15.13;;
2644;SDS011;15377;48.540;9.268;2022-12-11T11:59:46;22.50;;;13.70;;
2644;SDS011;15377;48.540;9.268;2022-12-11T12:02:17;27.88;;;16.48;;
2644;SDS011;15377;48.540;9.268;2022-12-11T12:04:44;18.38;;;10.20;;
2644;SDS011;15377;48.540;9.268;2022-12-11T12:17:54;16.45;;;10.63;;
2644;SDS011;15377;48.540;9.268;2022-12-11T12:23:43;14.88;;;10.90;;
2644;SDS011;15377;48.540;9.268;2022-12-11T12:42:02;16.13;;;8.55;;
2644;SDS011;15377;48.540;9.268;2022-12-11T12:44:29;14.40;;;8.40;;
2644;SDS011;15377;48.540;9.268;2022-12-11T12:47:08;13.57;;;8.40;;
2644;SDS011;15377;48.540;9.268;2022-12-11T12:49:47;15.88;;;10.48;;
2644;SDS011;15377;48.540;9.268;2022-12-11T12:54:43;17.55;;;10.10;;
2644;SDS011;15377;48.540;9.268;2022-12-11T12:57:31;15.07;;;8.73;;
2644;SDS011;15377;48.540;9.268;2022-12-11T12:59:58;18.65;;;11.00;;
2644;SDS011;15377;48.540;9.268;2022-12-11T13:02:23;15.97;;;9.10;;
2644;SDS011;15377;48.540;9.268;2022-12-11T13:04:57;17.93;;;9.30;;
2644;SDS011;15377;48.540;9.268;2022-12-11T13:07:25;18.85;;;9.55;;
2644;SDS011;15377;48.540;9.268;2022-12-11T13:17:57;13.45;;;7.35;;
2644;SDS011;15377;48.540;9.268;2022-12-11T13:20:27;14.43;;;8.68;;
2644;SDS011;15377;48.540;9.268;2022-12-11T13:23:06;13.02;;;7.57;;
2644;SDS011;15377;48.540;9.268;2022-12-11T13:25:48;15.95;;;8.27;;
2644;SDS011;15377;48.540;9.268;2022-12-11T13:28:58;13.73;;;7.80;;
2644;SDS011;15377;48.540;9.268;2022-12-11T13:31:06;14.80;;;7.78;;
2644;SDS011;15377;48.540;9.268;2022-12-11T13:33:53;12.25;;;7.20;;
2644;SDS011;15377;48.540;9.268;2022-12-11T13:36:25;13.32;;;8.05;;
2644;SDS011;15377;48.540;9.268;2022-12-11T13:39:03;12.15;;;7.78;;
2644;SDS011;15377;48.540;9.268;2022-12-11T13:41:35;16.08;;;9.95;;
2644;SDS011;15377;48.540;9.268;2022-12-11T13:44:02;20.60;;;13.40;;
2644;SDS011;15377;48.540;9.268;2022-12-11T13:46:30;16.20;;;8.88;;
2644;SDS011;15377;48.540;9.268;2022-12-11T13:49:01;11.35;;;6.85;;
2644;SDS011;15377;48.540;9.268;2022-12-11T13:51:31;21.08;;;13.23;;
2644;SDS011;15377;48.540;9.268;2022-12-11T13:54:32;16.35;;;10.27;;
2644;SDS011;15377;48.540;9.268;2022-12-11T13:56:55;14.50;;;9.15;;
2644;SDS011;15377;48.540;9.268;2022-12-11T13:59:34;15.13;;;8.48;;
2644;SDS011;15377;48.540;9.268;2022-12-11T14:02:09;17.98;;;10.57;;
2644;SDS011;15377;48.540;9.268;2022-12-11T14:04:42;13.52;;;8.40;;
2644;SDS011;15377;48.540;9.268;2022-12-11T14:07:08;13.88;;;8.98;;
2644;SDS011;15377;48.540;9.268;2022-12-11T14:09:36;14.05;;;8.50;;
2644;SDS011;15377;48.540;9.268;2022-12-11T14:12:12;21.95;;;11.63;;
2644;SDS011;15377;48.540;9.268;2022-12-11T14:14:42;17.40;;;9.68;;
2644;SDS011;15377;48.540;9.268;2022-12-11T14:17:13;12.20;;;7.97;;
2644;SDS011;15377;48.540;9.268;2022-12-11T14:19:46;16.10;;;9.40;;
2644;SDS011;15377;48.540;9.268;2022-12-11T14:22:17;13.73;;;9.10;;
2644;SDS011;15377;48.540;9.268;2022-12-11T14:24:51;16.75;;;10.90;;
2644;SDS011;15377;48.540;9.268;2022-12-11T14:27:19;16.67;;;9.85;;
2644;SDS011;15377;48.540;9.268;2022-12-11T14:29:45;18.77;;;10.23;;
2644;SDS011;15377;48.540;9.268;2022-12-11T14:32:16;18.63;;;10.10;;
2644;SDS011;15377;48.540;9.268;2022-12-11T14:34:49;17.85;;;9.45;;
2644;SDS011;15377;48.540;9.268;2022-12-11T14:37:15;17.65;;;9.52;;
2644;SDS011;15377;48.540;9.268;2022-12-11T14:39:45;17.30;;;9.98;;
2644;SDS011;15377;48.540;9.268;2022-12-11T14:42:22;16.80;;;8.65;;
2644;SDS011;15377;48.540;9.268;2022-12-11T14:47:52;14.38;;;8.52;;
2644;SDS011;15377;48.540;9.268;2022-12-11T14:50:26;16.27;;;9.07;;
2644;SDS011;15377;48.540;9.268;2022-12-11T14:53:03;16.60;;;11.00;;
2644;SDS011;15377;48.540;9.268;2022-12-11T14:55:34;18.35;;;9.57;;
2644;SDS011;15377;48.540;9.268;2022-12-11T14:58:07;15.00;;;8.82;;
2644;SDS011;15377;48.540;9.268;2022-12-11T15:00:59;15.13;;;9.43;;
2644;SDS011;15377;48.540;9.268;2022-12-11T15:03:44;24.20;;;11.75;;
2644;SDS011;15377;48.540;9.268;2022-12-11T15:09:26;15.60;;;9.63;;
2644;SDS011;15377;48.540;9.268;2022-12-11T15:12:17;18.23;;;10.43;;
2644;SDS011;15377;48.540;9.268;2022-12-11T15:14:54;17.30;;;10.57;;
2644;SDS011;15377;48.540;9.268;2022-12-11T15:17:27;15.23;;;10.02;;
2644;SDS011;15377;48.540;9.268;2022-12-11T15:19:54;19.35;;;9.25;;
2644;SDS011;15377;48.540;9.268;2022-12-11T15:22:29;15.63;;;8.95;;
2644;SDS011;15377;48.540;9.268;2022-12-11T15:24:56;16.55;;;9.52;;
2644;SDS011;15377;48.540;9.268;2022-12-11T15:27:37;16.00;;;9.73;;
2644;SDS011;15377;48.540;9.268;2022-12-11T15:30:53;19.58;;;9.75;;
2644;SDS011;15377;48.540;9.268;2022-12-11T15:33:00;16.30;;;8.65;;
2644;SDS011;15377;48.540;9.268;2022-12-11T15:35:26;17.33;;;9.90;;
2644;SDS011;15377;48.540;9.268;2022-12-11T15:37:52;23.70;;;12.73;;
2644;SDS011;15377;48.540;9.268;2022-12-11T15:40:19;20.63;;;11.15;;
2644;SDS011;15377;48.540;9.268;2022-12-11T15:42:45;19.50;;;9.80;;
2644;SDS011;15377;48.540;9.268;2022-12-11T15:45:15;22.15;;;11.45;;
2644;SDS011;15377;48.540;9.268;2022-12-11T15:47:42;19.27;;;11.38;;
2644;SDS011;15377;48.540;9.268;2022-12-11T15:50:14;19.00;;;10.73;;
2644;SDS011;15377;48.540;9.268;2022-12-11T15:52:43;16.20;;;10.55;;
2644;SDS011;15377;48.540;9.268;2022-12-11T15:55:10;18.65;;;11.35;;
2644;SDS011;15377;48.540;9.268;2022-12-11T15:57:39;30.90;;;19.77;;
2644;SDS011;15377;48.540;9.268;2022-12-11T16:00:12;22.85;;;13.55;;
2644;SDS011;15377;48.540;9.268;2022-12-11T16:02:38;21.33;;;12.30;;
2644;SDS011;15377;48.540;9.268;2022-12-11T16:05:03;20.80;;;12.40;;
2644;SDS011;15377;48.540;9.268;2022-12-11T16:07:29;23.23;;;12.57;;
2644;SDS011;15377;48.540;9.268;2022-12-11T16:09:55;23.77;;;13.27;;
2644;SDS011;15377;48.540;9.268;2022-12-11T16:12:20;21.20;;;12.40;;
2644;SDS011;15377;48.540;9.268;2022-12-11T16:14:45;18.97;;;12.40;;
2644;SDS011;15377;48.540;9.268;2022-12-11T16:17:11;21.90;;;13.60;;
2644;SDS011;15377;48.540;9.268;2022-12-11T16:19:39;20.83;;;13.05;;